上海/浦東 の空港の天気 - METARとTAF

上海浦東国際空港 ( ZSPD / PVG ) - 中国 上海市
飛行場実況気象(Metar)
観測時間05/28 18:30 CST (05/28 10:30 UTC)
風向・風速南東 5m/s
視程10km以上
天気現象
全天の8割程度の雲 雲底高度 460m
気温20℃
湿度88%
気圧1005hPa
METARZSPD 281030Z 14005MPS 9999 BKN015 20/18 Q1005 NOSIG
過去の天気等 Google飛行場航空写真 Wunderground天気予報

過去48時間のMETAR

飛行場予報(TAF)
発表時間: 5/28 11:12 CST (5/28 03:12 UTC)
予報対象時間: 28日14時 CST ~ 29日14時 CST
風向・風速南 6m/s
視程6000m
全天の8割程度の雲 雲底高度 460m
29日0時 CST ~ 29日2時 CST に徐々に
天気現象弱いしゅう雨
29日8時 CST ~ 29日14時 CST に一時的に
天気現象雷雨
全天の8割程度の雲 雲底高度 210m
全天の4割程度の積乱雲 雲底高度 910m
TAF ZSPD 280312Z 2806/2906 18006MPS 6000 BKN015 TX24/2806Z TN19/2821Z
BECMG 2816/2818 -SHRA
TEMPO 2900/2906 TSRA BKN007 SCT030CB